sensor_id;sensor_type;location;lat;lon;timestamp;pressure;altitude;pressure_sealevel;temperature;humidity
23164;BME280;31429;42.674;23.350;2023-08-08T02:55:02;94776.50;;;17.21;100.00
23164;BME280;31429;42.674;23.350;2023-08-08T02:57:29;94769.13;;;17.15;100.00
23164;BME280;31429;42.674;23.350;2023-08-08T03:00:39;94777.81;;;17.41;100.00
23164;BME280;31429;42.674;23.350;2023-08-08T03:07:51;94772.09;;;16.69;100.00
23164;BME280;31429;42.674;23.350;2023-08-08T03:17:19;94771.09;;;17.39;100.00
23164;BME280;31429;42.674;23.350;2023-08-08T03:18:22;94770.25;;;17.38;100.00
23164;BME280;31429;42.674;23.350;2023-08-08T03:19:31;94782.88;;;17.43;100.00
23164;BME280;31429;42.674;23.350;2023-08-08T03:20:33;94778.88;;;17.24;100.00
23164;BME280;31429;42.674;23.350;2023-08-08T03:21:34;94769.06;;;17.30;100.00
23164;BME280;31429;42.674;23.350;2023-08-08T03:22:38;94786.97;;;17.33;100.00
23164;BME280;31429;42.674;23.350;2023-08-08T03:23:53;94783.50;;;17.46;100.00
23164;BME280;31429;42.674;23.350;2023-08-08T03:25:06;94783.66;;;17.31;100.00
23164;BME280;31429;42.674;23.350;2023-08-08T03:40:12;94791.69;;;16.99;100.00
23164;BME280;31429;42.674;23.350;2023-08-08T03:41:37;94789.56;;;17.33;100.00
23164;BME280;31429;42.674;23.350;2023-08-08T03:42:39;94796.47;;;17.05;100.00
23164;BME280;31429;42.674;23.350;2023-08-08T03:44:05;94787.84;;;16.64;100.00
23164;BME280;31429;42.674;23.350;2023-08-08T03:52:19;94796.13;;;16.83;100.00
23164;BME280;31429;42.674;23.350;2023-08-08T04:17:37;94819.66;;;16.64;100.00
23164;BME280;31429;42.674;23.350;2023-08-08T04:19:25;94818.44;;;16.56;100.00
23164;BME280;31429;42.674;23.350;2023-08-08T04:21:08;94815.03;;;16.70;100.00
23164;BME280;31429;42.674;23.350;2023-08-08T04:22:10;94825.50;;;16.52;100.00
23164;BME280;31429;42.674;23.350;2023-08-08T04:23:12;94813.44;;;16.39;100.00
23164;BME280;31429;42.674;23.350;2023-08-08T04:24:15;94822.06;;;16.38;100.00
23164;BME280;31429;42.674;23.350;2023-08-08T04:25:23;94819.28;;;16.56;100.00
23164;BME280;31429;42.674;23.350;2023-08-08T04:27:13;94830.84;;;16.35;100.00
23164;BME280;31429;42.674;23.350;2023-08-08T04:28:34;94832.56;;;16.35;100.00
23164;BME280;31429;42.674;23.350;2023-08-08T04:30:04;94833.88;;;16.28;100.00
23164;BME280;31429;42.674;23.350;2023-08-08T04:31:11;94838.75;;;16.32;100.00
23164;BME280;31429;42.674;23.350;2023-08-08T04:41:23;94834.34;;;16.34;100.00
23164;BME280;31429;42.674;23.350;2023-08-08T04:42:27;94834.53;;;16.31;100.00
23164;BME280;31429;42.674;23.350;2023-08-08T04:43:31;94836.94;;;16.48;100.00
23164;BME280;31429;42.674;23.350;2023-08-08T04:44:35;94833.09;;;16.70;100.00
23164;BME280;31429;42.674;23.350;2023-08-08T04:45:57;94831.25;;;16.57;100.00
23164;BME280;31429;42.674;23.350;2023-08-08T04:47:00;94816.97;;;16.66;100.00
23164;BME280;31429;42.674;23.350;2023-08-08T04:48:03;94830.53;;;16.55;100.00
23164;BME280;31429;42.674;23.350;2023-08-08T04:49:10;94828.78;;;16.56;100.00
23164;BME280;31429;42.674;23.350;2023-08-08T04:50:15;94831.47;;;16.69;100.00
23164;BME280;31429;42.674;23.350;2023-08-08T04:51:22;94821.03;;;16.56;100.00
23164;BME280;31429;42.674;23.350;2023-08-08T04:52:43;94828.59;;;16.59;100.00
23164;BME280;31429;42.674;23.350;2023-08-08T04:54:27;94827.56;;;16.61;100.00
23164;BME280;31429;42.674;23.350;2023-08-08T04:55:29;94818.78;;;16.50;100.00
23164;BME280;31429;42.674;23.350;2023-08-08T04:56:31;94836.84;;;16.50;100.00
23164;BME280;31429;42.674;23.350;2023-08-08T04:57:35;94831.59;;;16.37;100.00
23164;BME280;31429;42.674;23.350;2023-08-08T04:58:39;94849.56;;;16.39;100.00
23164;BME280;31429;42.674;23.350;2023-08-08T05:00:02;94841.91;;;16.37;100.00
23164;BME280;31429;42.674;23.350;2023-08-08T05:01:09;94851.75;;;16.31;100.00
23164;BME280;31429;42.674;23.350;2023-08-08T05:02:17;94845.03;;;16.28;100.00
23164;BME280;31429;42.674;23.350;2023-08-08T05:03:21;94857.16;;;16.26;100.00
23164;BME280;31429;42.674;23.350;2023-08-08T05:04:25;94846.47;;;16.18;100.00
23164;BME280;31429;42.674;23.350;2023-08-08T05:05:49;94861.19;;;16.46;100.00
23164;BME280;31429;42.674;23.350;2023-08-08T05:06:50;94845.31;;;16.38;100.00
23164;BME280;31429;42.674;23.350;2023-08-08T05:08:13;94864.22;;;16.52;100.00
23164;BME280;31429;42.674;23.350;2023-08-08T05:10:17;94871.03;;;16.39;100.00
23164;BME280;31429;42.674;23.350;2023-08-08T05:11:23;94865.94;;;16.38;100.00
23164;BME280;31429;42.674;23.350;2023-08-08T05:12:25;94866.34;;;16.46;100.00
23164;BME280;31429;42.674;23.350;2023-08-08T05:13:48;94873.50;;;16.56;100.00
23164;BME280;31429;42.674;23.350;2023-08-08T05:14:52;94879.16;;;16.47;100.00
23164;BME280;31429;42.674;23.350;2023-08-08T05:15:54;94883.09;;;16.83;100.00
23164;BME280;31429;42.674;23.350;2023-08-08T05:16:59;94897.19;;;16.63;100.00
23164;BME280;31429;42.674;23.350;2023-08-08T05:18:02;94885.94;;;16.64;100.00
23164;BME280;31429;42.674;23.350;2023-08-08T05:19:05;94902.38;;;16.91;100.00
23164;BME280;31429;42.674;23.350;2023-08-08T05:20:09;94893.25;;;16.86;100.00
23164;BME280;31429;42.674;23.350;2023-08-08T05:21:10;94901.53;;;16.91;100.00
23164;BME280;31429;42.674;23.350;2023-08-08T05:22:14;94900.22;;;17.12;100.00
23164;BME280;31429;42.674;23.350;2023-08-08T05:23:15;94903.81;;;17.23;100.00
23164;BME280;31429;42.674;23.350;2023-08-08T05:24:23;94906.56;;;17.49;100.00
23164;BME280;31429;42.674;23.350;2023-08-08T05:25:52;94877.13;;;18.44;100.00
23164;BME280;31429;42.674;23.350;2023-08-08T05:27:07;94863.44;;;19.18;100.00
23164;BME280;31429;42.674;23.350;2023-08-08T05:28:11;94874.34;;;19.72;100.00
23164;BME280;31429;42.674;23.350;2023-08-08T05:29:18;94888.34;;;18.95;100.00
23164;BME280;31429;42.674;23.350;2023-08-08T05:30:46;94912.56;;;18.17;100.00
23164;BME280;31429;42.674;23.350;2023-08-08T05:32:06;94915.06;;;17.92;100.00
23164;BME280;31429;42.674;23.350;2023-08-08T05:33:50;94916.06;;;17.62;100.00
23164;BME280;31429;42.674;23.350;2023-08-08T05:34:52;94903.63;;;17.41;100.00
23164;BME280;31429;42.674;23.350;2023-08-08T05:35:53;94923.38;;;17.42;100.00
23164;BME280;31429;42.674;23.350;2023-08-08T05:37:15;94907.94;;;17.68;100.00
23164;BME280;31429;42.674;23.350;2023-08-08T05:38:22;94911.16;;;17.72;100.00
23164;BME280;31429;42.674;23.350;2023-08-08T05:39:45;94923.97;;;17.88;100.00
23164;BME280;31429;42.674;23.350;2023-08-08T05:44:09;94930.94;;;18.66;100.00
23164;BME280;31429;42.674;23.350;2023-08-08T05:45:14;94927.00;;;18.85;100.00
23164;BME280;31429;42.674;23.350;2023-08-08T05:46:16;94927.50;;;18.53;100.00
23164;BME280;31429;42.674;23.350;2023-08-08T05:47:41;94938.78;;;18.52;100.00
23164;BME280;31429;42.674;23.350;2023-08-08T05:48:44;94937.53;;;18.57;100.00
23164;BME280;31429;42.674;23.350;2023-08-08T05:50:07;94947.50;;;18.63;100.00
23164;BME280;31429;42.674;23.350;2023-08-08T05:51:10;94948.00;;;18.56;100.00
23164;BME280;31429;42.674;23.350;2023-08-08T05:52:32;94941.31;;;18.78;100.00
23164;BME280;31429;42.674;23.350;2023-08-08T05:55:28;94954.06;;;18.81;100.00
23164;BME280;31429;42.674;23.350;2023-08-08T06:36:12;94962.06;;;18.25;100.00
23164;BME280;31429;42.674;23.350;2023-08-08T06:37:20;94960.75;;;18.32;100.00
23164;BME280;31429;42.674;23.350;2023-08-08T06:38:23;94961.53;;;18.20;100.00
23164;BME280;31429;42.674;23.350;2023-08-08T06:39:26;94957.06;;;18.36;100.00
23164;BME280;31429;42.674;23.350;2023-08-08T06:41:11;94959.94;;;18.58;100.00
23164;BME280;31429;42.674;23.350;2023-08-08T06:45:22;94959.41;;;18.66;100.00
23164;BME280;31429;42.674;23.350;2023-08-08T06:47:18;94953.59;;;18.62;100.00
23164;BME280;31429;42.674;23.350;2023-08-08T06:49:03;94962.72;;;18.68;100.00
23164;BME280;31429;42.674;23.350;2023-08-08T06:50:59;94961.56;;;18.59;100.00
23164;BME280;31429;42.674;23.350;2023-08-08T06:52:12;94963.59;;;18.42;100.00
23164;BME280;31429;42.674;23.350;2023-08-08T06:53:14;94962.81;;;18.54;100.00
23164;BME280;31429;42.674;23.350;2023-08-08T06:54:17;94949.28;;;18.75;100.00
23164;BME280;31429;42.674;23.350;2023-08-08T06:55:20;94947.94;;;18.82;100.00
23164;BME280;31429;42.674;23.350;2023-08-08T06:58:46;94964.69;;;18.37;100.00
23164;BME280;31429;42.674;23.350;2023-08-08T07:00:11;94957.66;;;18.66;100.00
23164;BME280;31429;42.674;23.350;2023-08-08T07:01:29;94950.63;;;18.81;100.00
23164;BME280;31429;42.674;23.350;2023-08-08T07:02:37;94965.09;;;18.31;100.00
23164;BME280;31429;42.674;23.350;2023-08-08T07:04:00;94969.13;;;18.50;100.00
23164;BME280;31429;42.674;23.350;2023-08-08T07:05:46;94965.75;;;18.48;100.00
23164;BME280;31429;42.674;23.350;2023-08-08T07:07:10;94955.63;;;18.84;100.00
23164;BME280;31429;42.674;23.350;2023-08-08T07:08:37;94971.38;;;19.06;100.00
23164;BME280;31429;42.674;23.350;2023-08-08T07:09:48;94957.25;;;18.85;100.00
23164;BME280;31429;42.674;23.350;2023-08-08T07:11:54;94971.69;;;19.27;100.00
23164;BME280;31429;42.674;23.350;2023-08-08T07:13:02;94965.56;;;19.53;100.00
23164;BME280;31429;42.674;23.350;2023-08-08T07:15:46;94969.09;;;19.14;100.00
23164;BME280;31429;42.674;23.350;2023-08-08T07:16:48;94966.34;;;19.79;100.00
23164;BME280;31429;42.674;23.350;2023-08-08T07:17:59;94962.34;;;19.62;100.00
23164;BME280;31429;42.674;23.350;2023-08-08T07:19:11;94965.97;;;19.60;100.00
23164;BME280;31429;42.674;23.350;2023-08-08T07:20:16;94963.72;;;19.55;100.00
23164;BME280;31429;42.674;23.350;2023-08-08T07:21:18;94976.88;;;19.39;100.00
23164;BME280;31429;42.674;23.350;2023-08-08T07:23:53;94967.31;;;19.02;100.00
23164;BME280;31429;42.674;23.350;2023-08-08T07:24:56;94953.66;;;19.38;100.00
23164;BME280;31429;42.674;23.350;2023-08-08T07:25:57;94969.00;;;19.28;100.00
23164;BME280;31429;42.674;23.350;2023-08-08T07:26:59;94977.00;;;19.13;100.00
23164;BME280;31429;42.674;23.350;2023-08-08T07:30:35;94965.00;;;19.73;100.00
23164;BME280;31429;42.674;23.350;2023-08-08T07:34:05;94976.06;;;19.26;95.84
23164;BME280;31429;42.674;23.350;2023-08-08T07:35:35;94977.59;;;18.78;100.00
23164;BME280;31429;42.674;23.350;2023-08-08T07:36:40;94970.22;;;18.46;96.63
23164;BME280;31429;42.674;23.350;2023-08-08T07:41:24;94966.81;;;19.60;100.00
23164;BME280;31429;42.674;23.350;2023-08-08T07:42:28;94980.41;;;19.26;94.38
23164;BME280;31429;42.674;23.350;2023-08-08T07:43:54;94978.44;;;19.29;100.00
23164;BME280;31429;42.674;23.350;2023-08-08T07:44:59;94975.38;;;19.86;91.35
23164;BME280;31429;42.674;23.350;2023-08-08T07:46:02;94975.66;;;19.81;92.23
23164;BME280;31429;42.674;23.350;2023-08-08T07:47:07;94973.34;;;20.02;100.00
23164;BME280;31429;42.674;23.350;2023-08-08T07:48:14;94990.56;;;19.54;96.98
23164;BME280;31429;42.674;23.350;2023-08-08T07:49:17;94980.28;;;19.52;94.04
23164;BME280;31429;42.674;23.350;2023-08-08T07:50:41;94981.44;;;19.48;98.97
23164;BME280;31429;42.674;23.350;2023-08-08T07:52:09;94979.88;;;19.33;98.88
23164;BME280;31429;42.674;23.350;2023-08-08T07:53:33;94971.72;;;19.39;100.00
23164;BME280;31429;42.674;23.350;2023-08-08T07:54:36;94979.50;;;19.39;90.09
23164;BME280;31429;42.674;23.350;2023-08-08T08:01:02;94967.75;;;19.09;97.15
23164;BME280;31429;42.674;23.350;2023-08-08T08:02:05;94963.19;;;19.12;95.71
23164;BME280;31429;42.674;23.350;2023-08-08T08:04:04;94966.94;;;19.21;91.70
23164;BME280;31429;42.674;23.350;2023-08-08T08:11:40;94976.22;;;19.86;89.81
23164;BME280;31429;42.674;23.350;2023-08-08T08:13:14;94954.09;;;20.17;87.20
23164;BME280;31429;42.674;23.350;2023-08-08T08:14:22;94956.72;;;19.81;90.60
23164;BME280;31429;42.674;23.350;2023-08-08T08:37:56;94969.19;;;19.99;90.23
23164;BME280;31429;42.674;23.350;2023-08-08T08:40:25;94961.97;;;20.28;98.57
23164;BME280;31429;42.674;23.350;2023-08-08T08:43:59;94966.22;;;20.17;86.74
23164;BME280;31429;42.674;23.350;2023-08-08T08:46:46;94967.06;;;20.41;88.67
23164;BME280;31429;42.674;23.350;2023-08-08T08:50:39;94969.03;;;20.26;85.04
23164;BME280;31429;42.674;23.350;2023-08-08T08:51:45;94969.88;;;20.14;88.01
23164;BME280;31429;42.674;23.350;2023-08-08T08:53:57;94968.78;;;20.29;85.73
23164;BME280;31429;42.674;23.350;2023-08-08T08:54:59;94965.66;;;20.37;84.21
23164;BME280;31429;42.674;23.350;2023-08-08T08:56:00;94959.72;;;20.58;90.83
23164;BME280;31429;42.674;23.350;2023-08-08T08:57:05;94957.00;;;21.06;91.48
23164;BME280;31429;42.674;23.350;2023-08-08T08:58:06;94959.69;;;20.82;83.82
23164;BME280;31429;42.674;23.350;2023-08-08T08:59:07;94963.38;;;20.91;88.49
23164;BME280;31429;42.674;23.350;2023-08-08T09:00:11;94969.31;;;20.69;82.90
23164;BME280;31429;42.674;23.350;2023-08-08T09:01:14;94972.66;;;20.47;86.21
23164;BME280;31429;42.674;23.350;2023-08-08T09:02:18;94963.31;;;20.69;89.98
23164;BME280;31429;42.674;23.350;2023-08-08T09:03:19;94965.34;;;20.52;89.83
23164;BME280;31429;42.674;23.350;2023-08-08T09:04:22;94967.38;;;20.49;84.33
23164;BME280;31429;42.674;23.350;2023-08-08T09:05:36;94972.38;;;20.39;85.79
23164;BME280;31429;42.674;23.350;2023-08-08T09:06:38;94964.66;;;20.85;90.99
23164;BME280;31429;42.674;23.350;2023-08-08T09:07:42;94953.91;;;20.90;90.24
23164;BME280;31429;42.674;23.350;2023-08-08T09:08:45;94973.38;;;20.49;82.50
23164;BME280;31429;42.674;23.350;2023-08-08T09:09:48;94954.09;;;20.17;83.85
23164;BME280;31429;42.674;23.350;2023-08-08T09:10:49;94953.50;;;20.37;91.07
23164;BME280;31429;42.674;23.350;2023-08-08T09:11:53;94963.72;;;20.28;89.52
23164;BME280;31429;42.674;23.350;2023-08-08T09:12:55;94960.78;;;20.32;85.35
23164;BME280;31429;42.674;23.350;2023-08-08T09:13:56;94956.94;;;20.73;88.12
23164;BME280;31429;42.674;23.350;2023-08-08T09:14:57;94947.53;;;20.83;93.12
23164;BME280;31429;42.674;23.350;2023-08-08T09:15:59;94950.63;;;20.99;86.50
23164;BME280;31429;42.674;23.350;2023-08-08T09:17:01;94957.56;;;20.87;84.08
23164;BME280;31429;42.674;23.350;2023-08-08T09:18:05;94966.41;;;20.50;83.09
23164;BME280;31429;42.674;23.350;2023-08-08T09:19:30;94966.94;;;19.95;85.48
23164;BME280;31429;42.674;23.350;2023-08-08T09:20:34;94962.00;;;20.39;86.73
23164;BME280;31429;42.674;23.350;2023-08-08T09:21:35;94966.94;;;19.95;86.08
23164;BME280;31429;42.674;23.350;2023-08-08T09:22:39;94969.25;;;20.11;88.21
23164;BME280;31429;42.674;23.350;2023-08-08T09:23:45;94967.59;;;20.46;90.52
23164;BME280;31429;42.674;23.350;2023-08-08T09:24:46;94965.78;;;20.46;87.43
23164;BME280;31429;42.674;23.350;2023-08-08T09:25:48;94965.13;;;20.55;85.98
23164;BME280;31429;42.674;23.350;2023-08-08T09:26:49;94973.19;;;20.29;83.47
23164;BME280;31429;42.674;23.350;2023-08-08T09:27:51;94958.13;;;20.45;84.68
23164;BME280;31429;42.674;23.350;2023-08-08T09:28:53;94975.03;;;20.50;83.83
23164;BME280;31429;42.674;23.350;2023-08-08T09:29:54;94969.63;;;20.53;90.74
23164;BME280;31429;42.674;23.350;2023-08-08T09:31:01;94968.50;;;20.69;86.65
23164;BME280;31429;42.674;23.350;2023-08-08T09:32:03;94976.06;;;20.72;84.22
23164;BME280;31429;42.674;23.350;2023-08-08T09:33:06;94972.94;;;20.90;84.93
23164;BME280;31429;42.674;23.350;2023-08-08T09:35:18;94981.59;;;20.67;82.98
23164;BME280;31429;42.674;23.350;2023-08-08T09:36:24;94977.00;;;20.23;81.98
23164;BME280;31429;42.674;23.350;2023-08-08T09:37:27;94977.66;;;20.14;84.08
23164;BME280;31429;42.674;23.350;2023-08-08T09:38:29;94975.28;;;20.11;84.46
23164;BME280;31429;42.674;23.350;2023-08-08T09:39:30;94974.06;;;19.68;89.84
23164;BME280;31429;42.674;23.350;2023-08-08T09:40:34;94981.28;;;19.88;95.86
23164;BME280;31429;42.674;23.350;2023-08-08T09:41:36;94989.44;;;19.45;86.02
23164;BME280;31429;42.674;23.350;2023-08-08T09:42:37;94986.09;;;19.06;86.28
23164;BME280;31429;42.674;23.350;2023-08-08T09:43:43;94994.72;;;19.69;91.28
23164;BME280;31429;42.674;23.350;2023-08-08T09:44:46;94982.06;;;20.01;85.51
23164;BME280;31429;42.674;23.350;2023-08-08T09:47:12;94990.59;;;20.27;83.72
23164;BME280;31429;42.674;23.350;2023-08-08T09:48:16;94982.78;;;20.39;80.92
23164;BME280;31429;42.674;23.350;2023-08-08T09:50:28;94971.63;;;20.85;85.36
23164;BME280;31429;42.674;23.350;2023-08-08T09:51:29;94973.09;;;21.00;81.62
23164;BME280;31429;42.674;23.350;2023-08-08T09:52:34;94976.47;;;21.00;84.56
23164;BME280;31429;42.674;23.350;2023-08-08T09:53:35;94977.59;;;21.09;81.03
23164;BME280;31429;42.674;23.350;2023-08-08T09:54:37;94969.81;;;21.20;80.89
23164;BME280;31429;42.674;23.350;2023-08-08T09:55:43;94964.66;;;21.31;79.96
23164;BME280;31429;42.674;23.350;2023-08-08T09:56:49;94974.44;;;21.83;84.76
23164;BME280;31429;42.674;23.350;2023-08-08T09:57:50;94969.72;;;21.88;80.06
23164;BME280;31429;42.674;23.350;2023-08-08T09:58:57;94968.78;;;21.78;74.63
23164;BME280;31429;42.674;23.350;2023-08-08T09:59:58;94968.44;;;21.49;78.39
23164;BME280;31429;42.674;23.350;2023-08-08T10:01:02;94971.16;;;21.37;75.11
23164;BME280;31429;42.674;23.350;2023-08-08T10:02:05;94971.63;;;21.31;76.80
23164;BME280;31429;42.674;23.350;2023-08-08T10:03:14;94968.66;;;21.24;78.83
23164;BME280;31429;42.674;23.350;2023-08-08T10:04:20;94975.91;;;21.54;80.14
23164;BME280;31429;42.674;23.350;2023-08-08T10:05:23;94969.84;;;21.64;77.73
23164;BME280;31429;42.674;23.350;2023-08-08T10:06:28;94972.00;;;21.59;81.79
23164;BME280;31429;42.674;23.350;2023-08-08T10:07:29;94978.13;;;21.25;74.35
23164;BME280;31429;42.674;23.350;2023-08-08T10:08:31;94976.09;;;21.29;77.43
23164;BME280;31429;42.674;23.350;2023-08-08T10:09:31;94979.41;;;21.19;80.55
23164;BME280;31429;42.674;23.350;2023-08-08T10:10:34;94983.81;;;21.06;77.25
23164;BME280;31429;42.674;23.350;2023-08-08T10:11:36;94974.09;;;21.21;78.15
23164;BME280;31429;42.674;23.350;2023-08-08T10:12:44;94964.06;;;21.28;78.81
23164;BME280;31429;42.674;23.350;2023-08-08T10:13:49;94970.44;;;21.68;82.36
23164;BME280;31429;42.674;23.350;2023-08-08T10:14:57;94968.66;;;21.68;75.52
23164;BME280;31429;42.674;23.350;2023-08-08T10:16:08;94970.19;;;21.82;81.54
23164;BME280;31429;42.674;23.350;2023-08-08T10:17:15;94975.28;;;21.84;75.50
23164;BME280;31429;42.674;23.350;2023-08-08T10:18:17;94968.31;;;21.73;75.64
23164;BME280;31429;42.674;23.350;2023-08-08T10:19:21;94976.97;;;21.62;77.21
23164;BME280;31429;42.674;23.350;2023-08-08T10:20:24;94964.19;;;21.48;75.87
23164;BME280;31429;42.674;23.350;2023-08-08T10:21:25;94970.44;;;21.68;77.33
23164;BME280;31429;42.674;23.350;2023-08-08T10:22:31;94972.69;;;21.95;76.22
23164;BME280;31429;42.674;23.350;2023-08-08T10:23:41;94975.28;;;22.06;80.32
23164;BME280;31429;42.674;23.350;2023-08-08T10:24:47;94968.84;;;22.21;76.14
23164;BME280;31429;42.674;23.350;2023-08-08T10:25:52;94970.00;;;22.39;75.65
23164;BME280;31429;42.674;23.350;2023-08-08T10:26:59;94967.13;;;22.42;75.28
23164;BME280;31429;42.674;23.350;2023-08-08T10:28:06;94959.59;;;22.60;80.85
23164;BME280;31429;42.674;23.350;2023-08-08T10:29:18;94967.22;;;22.09;71.58
23164;BME280;31429;42.674;23.350;2023-08-08T10:30:19;94965.00;;;21.82;73.35
23164;BME280;31429;42.674;23.350;2023-08-08T10:31:20;94967.09;;;21.10;72.61
23164;BME280;31429;42.674;23.350;2023-08-08T10:32:24;94976.69;;;21.43;78.99
23164;BME280;31429;42.674;23.350;2023-08-08T10:33:40;94966.50;;;21.18;76.96
23164;BME280;31429;42.674;23.350;2023-08-08T10:36:00;94975.53;;;21.36;77.74
23164;BME280;31429;42.674;23.350;2023-08-08T10:37:04;94963.94;;;21.85;84.84
23164;BME280;31429;42.674;23.350;2023-08-08T10:38:19;94956.59;;;21.78;74.88
23164;BME280;31429;42.674;23.350;2023-08-08T10:39:24;94958.13;;;22.03;73.66
23164;BME280;31429;42.674;23.350;2023-08-08T10:40:35;94952.81;;;22.05;72.41
23164;BME280;31429;42.674;23.350;2023-08-08T10:41:52;94953.50;;;22.07;75.89
23164;BME280;31429;42.674;23.350;2023-08-08T10:42:53;94957.31;;;21.69;72.81
23164;BME280;31429;42.674;23.350;2023-08-08T11:14:25;94949.59;;;22.01;73.68
23164;BME280;31429;42.674;23.350;2023-08-08T11:16:50;94937.41;;;22.02;72.16
23164;BME280;31429;42.674;23.350;2023-08-08T11:18:14;94938.75;;;21.96;73.15
23164;BME280;31429;42.674;23.350;2023-08-08T11:19:21;94944.75;;;21.86;71.72
23164;BME280;31429;42.674;23.350;2023-08-08T11:25:43;94933.66;;;21.50;72.65
23164;BME280;31429;42.674;23.350;2023-08-08T11:29:36;94921.81;;;21.91;75.01
23164;BME280;31429;42.674;23.350;2023-08-08T11:32:27;94934.81;;;22.02;75.30
23164;BME280;31429;42.674;23.350;2023-08-08T11:33:38;94930.66;;;22.10;76.91
23164;BME280;31429;42.674;23.350;2023-08-08T11:34:47;94935.59;;;22.24;70.38
23164;BME280;31429;42.674;23.350;2023-08-08T11:36:09;94932.78;;;22.05;70.84
23164;BME280;31429;42.674;23.350;2023-08-08T11:37:23;94917.97;;;22.06;74.69
23164;BME280;31429;42.674;23.350;2023-08-08T11:38:26;94916.66;;;22.11;73.40
23164;BME280;31429;42.674;23.350;2023-08-08T11:39:32;94918.16;;;21.93;70.80
23164;BME280;31429;42.674;23.350;2023-08-08T11:40:37;94917.75;;;22.09;73.55
23164;BME280;31429;42.674;23.350;2023-08-08T11:41:43;94923.69;;;22.31;75.41
23164;BME280;31429;42.674;23.350;2023-08-08T11:42:46;94900.41;;;22.30;72.08
23164;BME280;31429;42.674;23.350;2023-08-08T11:44:12;94920.69;;;22.47;70.34
23164;BME280;31429;42.674;23.350;2023-08-08T11:45:42;94922.28;;;22.39;70.65
23164;BME280;31429;42.674;23.350;2023-08-08T11:47:03;94916.59;;;22.33;74.32
23164;BME280;31429;42.674;23.350;2023-08-08T11:48:27;94915.22;;;22.18;70.55
23164;BME280;31429;42.674;23.350;2023-08-08T11:49:54;94929.13;;;22.08;69.72
23164;BME280;31429;42.674;23.350;2023-08-08T11:51:35;94916.59;;;22.65;79.99
23164;BME280;31429;42.674;23.350;2023-08-08T11:52:40;94919.69;;;23.21;73.59
23164;BME280;31429;42.674;23.350;2023-08-08T11:54:01;94918.72;;;22.92;70.22
23164;BME280;31429;42.674;23.350;2023-08-08T11:55:14;94908.84;;;22.75;76.86
23164;BME280;31429;42.674;23.350;2023-08-08T11:56:21;94913.50;;;22.92;78.88
23164;BME280;31429;42.674;23.350;2023-08-08T12:09:23;94900.94;;;22.13;72.38
23164;BME280;31429;42.674;23.350;2023-08-08T12:14:39;94902.63;;;21.81;80.25
23164;BME280;31429;42.674;23.350;2023-08-08T12:16:30;94881.66;;;22.36;76.26
23164;BME280;31429;42.674;23.350;2023-08-08T12:17:35;94880.56;;;23.21;83.82
23164;BME280;31429;42.674;23.350;2023-08-08T12:19:44;94885.16;;;22.87;79.69
23164;BME280;31429;42.674;23.350;2023-08-08T12:21:44;94876.78;;;22.63;78.07
23164;BME280;31429;42.674;23.350;2023-08-08T12:41:06;94885.34;;;22.54;67.07
23164;BME280;31429;42.674;23.350;2023-08-08T12:42:15;94880.53;;;22.50;68.75
23164;BME280;31429;42.674;23.350;2023-08-08T12:44:09;94869.66;;;22.45;66.89
23164;BME280;31429;42.674;23.350;2023-08-08T12:53:21;94873.59;;;22.07;71.54
23164;BME280;31429;42.674;23.350;2023-08-08T12:54:52;94866.59;;;22.40;70.73
23164;BME280;31429;42.674;23.350;2023-08-08T12:56:42;94875.47;;;22.37;71.30
23164;BME280;31429;42.674;23.350;2023-08-08T12:58:13;94872.75;;;22.59;72.17
23164;BME280;31429;42.674;23.350;2023-08-08T13:03:26;94862.44;;;22.89;79.27
23164;BME280;31429;42.674;23.350;2023-08-08T13:56:32;94851.03;;;23.21;95.82
23164;BME280;31429;42.674;23.350;2023-08-08T13:58:03;94854.78;;;22.98;73.73
23164;BME280;31429;42.674;23.350;2023-08-08T13:59:18;94852.91;;;23.09;77.48
23164;BME280;31429;42.674;23.350;2023-08-08T14:01:07;94859.72;;;22.70;72.57
23164;BME280;31429;42.674;23.350;2023-08-08T14:02:33;94849.22;;;22.81;80.24
23164;BME280;31429;42.674;23.350;2023-08-08T14:07:20;94847.19;;;23.25;71.39
23164;BME280;31429;42.674;23.350;2023-08-08T14:14:30;94844.28;;;23.49;74.29
23164;BME280;31429;42.674;23.350;2023-08-08T14:15:40;94847.59;;;23.41;78.26
23164;BME280;31429;42.674;23.350;2023-08-08T14:27:08;94841.84;;;22.96;65.73
23164;BME280;31429;42.674;23.350;2023-08-08T15:34:32;94845.72;;;23.02;70.62
23164;BME280;31429;42.674;23.350;2023-08-08T15:37:58;94841.69;;;23.18;88.37
23164;BME280;31429;42.674;23.350;2023-08-08T15:40:30;94856.53;;;23.27;75.15
23164;BME280;31429;42.674;23.350;2023-08-08T15:44:14;94856.22;;;23.11;72.24
23164;BME280;31429;42.674;23.350;2023-08-08T15:46:33;94855.00;;;22.64;77.92
23164;BME280;31429;42.674;23.350;2023-08-08T15:47:38;94853.28;;;22.74;72.70
23164;BME280;31429;42.674;23.350;2023-08-08T15:49:02;94855.53;;;22.88;71.84
23164;BME280;31429;42.674;23.350;2023-08-08T15:50:10;94858.47;;;22.95;71.20
23164;BME280;31429;42.674;23.350;2023-08-08T15:51:11;94861.59;;;22.89;68.93
23164;BME280;31429;42.674;23.350;2023-08-08T15:52:12;94858.16;;;22.88;71.41
23164;BME280;31429;42.674;23.350;2023-08-08T15:53:12;94859.94;;;22.88;70.75
23164;BME280;31429;42.674;23.350;2023-08-08T15:54:15;94866.03;;;22.98;71.84
23164;BME280;31429;42.674;23.350;2023-08-08T15:55:17;94860.34;;;23.14;84.98
23164;BME280;31429;42.674;23.350;2023-08-08T15:56:18;94869.88;;;23.24;68.36
23164;BME280;31429;42.674;23.350;2023-08-08T15:57:19;94871.66;;;23.24;74.30
23164;BME280;31429;42.674;23.350;2023-08-08T15:58:23;94875.28;;;22.81;70.77